sensor_id;sensor_type;location;lat;lon;timestamp;P1;durP1;ratioP1;P2;durP2;ratioP2
46377;SDS011;32083;47.360;9.650;2023-11-21T05:01:05;5.50;;;2.75;;
46377;SDS011;32083;47.360;9.650;2023-11-21T05:03:32;4.13;;;2.75;;
46377;SDS011;32083;47.360;9.650;2023-11-21T05:05:59;3.28;;;2.25;;
46377;SDS011;32083;47.360;9.650;2023-11-21T05:08:25;10.43;;;3.35;;
46377;SDS011;32083;47.360;9.650;2023-11-21T05:10:53;6.57;;;2.60;;
46377;SDS011;32083;47.360;9.650;2023-11-21T05:13:19;6.22;;;2.40;;
46377;SDS011;32083;47.360;9.650;2023-11-21T05:15:45;5.05;;;2.15;;
46377;SDS011;32083;47.360;9.650;2023-11-21T05:18:11;4.55;;;2.83;;
46377;SDS011;32083;47.360;9.650;2023-11-21T05:20:39;9.30;;;3.33;;
46377;SDS011;32083;47.360;9.650;2023-11-21T05:23:06;10.88;;;2.05;;
46377;SDS011;32083;47.360;9.650;2023-11-21T05:25:33;11.07;;;5.40;;
46377;SDS011;32083;47.360;9.650;2023-11-21T05:27:59;9.32;;;6.18;;
46377;SDS011;32083;47.360;9.650;2023-11-21T05:30:27;7.20;;;5.53;;
46377;SDS011;32083;47.360;9.650;2023-11-21T05:32:53;6.45;;;4.40;;
46377;SDS011;32083;47.360;9.650;2023-11-21T05:35:19;4.47;;;1.85;;
46377;SDS011;32083;47.360;9.650;2023-11-21T05:37:49;5.53;;;1.92;;
46377;SDS011;32083;47.360;9.650;2023-11-21T05:40:15;4.93;;;1.75;;
46377;SDS011;32083;47.360;9.650;2023-11-21T05:42:41;5.22;;;2.40;;
46377;SDS011;32083;47.360;9.650;2023-11-21T05:45:08;14.50;;;6.60;;
46377;SDS011;32083;47.360;9.650;2023-11-21T05:47:38;7.20;;;4.15;;
46377;SDS011;32083;47.360;9.650;2023-11-21T05:50:06;8.95;;;5.25;;
46377;SDS011;32083;47.360;9.650;2023-11-21T05:52:37;11.15;;;5.55;;
46377;SDS011;32083;47.360;9.650;2023-11-21T05:55:04;9.48;;;4.20;;
46377;SDS011;32083;47.360;9.650;2023-11-21T05:57:34;8.25;;;4.47;;
46377;SDS011;32083;47.360;9.650;2023-11-21T06:00:08;10.55;;;3.90;;
46377;SDS011;32083;47.360;9.650;2023-11-21T06:42:46;12.98;;;5.63;;
46377;SDS011;32083;47.360;9.650;2023-11-21T06:46:14;8.95;;;5.78;;
46377;SDS011;32083;47.360;9.650;2023-11-21T06:49:20;6.72;;;5.05;;
46377;SDS011;32083;47.360;9.650;2023-11-21T06:55:46;13.05;;;4.72;;
46377;SDS011;32083;47.360;9.650;2023-11-21T06:58:11;8.48;;;4.75;;
46377;SDS011;32083;47.360;9.650;2023-11-21T07:00:39;10.32;;;4.72;;
46377;SDS011;32083;47.360;9.650;2023-11-21T07:03:05;9.38;;;4.47;;
46377;SDS011;32083;47.360;9.650;2023-11-21T07:05:31;9.18;;;5.65;;
46377;SDS011;32083;47.360;9.650;2023-11-21T07:07:57;11.20;;;5.07;;
46377;SDS011;32083;47.360;9.650;2023-11-21T07:10:29;9.38;;;4.72;;
46377;SDS011;32083;47.360;9.650;2023-11-21T07:12:55;9.18;;;6.35;;
46377;SDS011;32083;47.360;9.650;2023-11-21T07:15:22;9.25;;;6.10;;
46377;SDS011;32083;47.360;9.650;2023-11-21T07:17:49;10.27;;;5.72;;
46377;SDS011;32083;47.360;9.650;2023-11-21T07:20:15;12.10;;;6.97;;
46377;SDS011;32083;47.360;9.650;2023-11-21T07:22:42;15.05;;;7.85;;
46377;SDS011;32083;47.360;9.650;2023-11-21T07:25:08;8.70;;;7.47;;
46377;SDS011;32083;47.360;9.650;2023-11-21T07:27:34;9.48;;;5.80;;
46377;SDS011;32083;47.360;9.650;2023-11-21T07:30:01;10.93;;;6.35;;
46377;SDS011;32083;47.360;9.650;2023-11-21T07:32:31;11.85;;;8.55;;
46377;SDS011;32083;47.360;9.650;2023-11-21T07:34:57;16.10;;;13.25;;
46377;SDS011;32083;47.360;9.650;2023-11-21T07:37:24;18.38;;;13.05;;
46377;SDS011;32083;47.360;9.650;2023-11-21T07:39:53;12.75;;;8.13;;
46377;SDS011;32083;47.360;9.650;2023-11-21T07:42:22;11.07;;;5.43;;
46377;SDS011;32083;47.360;9.650;2023-11-21T07:44:49;9.13;;;5.43;;
46377;SDS011;32083;47.360;9.650;2023-11-21T07:47:15;6.50;;;4.85;;
46377;SDS011;32083;47.360;9.650;2023-11-21T07:49:41;8.20;;;4.95;;
46377;SDS011;32083;47.360;9.650;2023-11-21T07:52:09;8.93;;;5.13;;
46377;SDS011;32083;47.360;9.650;2023-11-21T07:54:35;7.80;;;5.35;;
46377;SDS011;32083;47.360;9.650;2023-11-21T07:57:01;7.68;;;4.82;;
46377;SDS011;32083;47.360;9.650;2023-11-21T07:59:29;8.80;;;5.95;;
46377;SDS011;32083;47.360;9.650;2023-11-21T08:01:55;8.68;;;5.68;;
46377;SDS011;32083;47.360;9.650;2023-11-21T08:04:21;9.25;;;5.20;;
46377;SDS011;32083;47.360;9.650;2023-11-21T08:06:48;7.80;;;5.65;;
46377;SDS011;32083;47.360;9.650;2023-11-21T08:09:14;7.18;;;4.25;;
46377;SDS011;32083;47.360;9.650;2023-11-21T08:11:42;8.43;;;6.28;;
46377;SDS011;32083;47.360;9.650;2023-11-21T08:14:08;9.95;;;8.05;;
46377;SDS011;32083;47.360;9.650;2023-11-21T08:16:34;8.52;;;7.30;;
46377;SDS011;32083;47.360;9.650;2023-11-21T08:19:00;10.45;;;8.10;;
46377;SDS011;32083;47.360;9.650;2023-11-21T08:21:26;9.23;;;8.32;;
46377;SDS011;32083;47.360;9.650;2023-11-21T08:23:54;11.18;;;6.55;;
46377;SDS011;32083;47.360;9.650;2023-11-21T08:26:21;10.18;;;6.50;;
46377;SDS011;32083;47.360;9.650;2023-11-21T08:28:47;11.43;;;6.43;;
46377;SDS011;32083;47.360;9.650;2023-11-21T08:31:13;7.90;;;7.13;;
46377;SDS011;32083;47.360;9.650;2023-11-21T08:33:39;8.15;;;5.18;;
46377;SDS011;32083;47.360;9.650;2023-11-21T08:36:08;6.85;;;6.15;;
46377;SDS011;32083;47.360;9.650;2023-11-21T08:38:37;8.80;;;6.25;;
46377;SDS011;32083;47.360;9.650;2023-11-21T08:41:04;8.18;;;6.00;;
46377;SDS011;32083;47.360;9.650;2023-11-21T08:43:34;9.85;;;7.28;;
46377;SDS011;32083;47.360;9.650;2023-11-21T08:46:05;7.68;;;5.85;;
46377;SDS011;32083;47.360;9.650;2023-11-21T08:48:34;6.55;;;4.97;;
46377;SDS011;32083;47.360;9.650;2023-11-21T08:51:01;10.23;;;5.90;;
46377;SDS011;32083;47.360;9.650;2023-11-21T08:53:29;10.65;;;5.30;;
46377;SDS011;32083;47.360;9.650;2023-11-21T08:55:56;8.45;;;4.57;;
46377;SDS011;32083;47.360;9.650;2023-11-21T08:58:22;6.78;;;4.95;;
46377;SDS011;32083;47.360;9.650;2023-11-21T09:00:48;8.32;;;5.53;;
46377;SDS011;32083;47.360;9.650;2023-11-21T09:03:14;9.90;;;5.72;;
46377;SDS011;32083;47.360;9.650;2023-11-21T09:05:40;7.88;;;4.80;;
46377;SDS011;32083;47.360;9.650;2023-11-21T09:08:06;9.25;;;4.68;;
46377;SDS011;32083;47.360;9.650;2023-11-21T09:10:33;7.18;;;4.78;;
46377;SDS011;32083;47.360;9.650;2023-11-21T09:13:02;9.43;;;5.65;;
46377;SDS011;32083;47.360;9.650;2023-11-21T09:15:28;8.20;;;4.65;;
46377;SDS011;32083;47.360;9.650;2023-11-21T09:17:55;8.52;;;5.63;;
46377;SDS011;32083;47.360;9.650;2023-11-21T09:20:21;9.13;;;5.38;;
46377;SDS011;32083;47.360;9.650;2023-11-21T09:22:48;7.82;;;5.60;;
46377;SDS011;32083;47.360;9.650;2023-11-21T09:25:14;10.00;;;5.78;;
46377;SDS011;32083;47.360;9.650;2023-11-21T09:27:41;7.32;;;5.43;;
46377;SDS011;32083;47.360;9.650;2023-11-21T09:30:07;7.38;;;4.78;;
46377;SDS011;32083;47.360;9.650;2023-11-21T09:32:37;9.30;;;5.28;;
46377;SDS011;32083;47.360;9.650;2023-11-21T09:35:05;8.00;;;5.65;;
46377;SDS011;32083;47.360;9.650;2023-11-21T09:37:34;8.93;;;5.03;;
46377;SDS011;32083;47.360;9.650;2023-11-21T09:40:03;8.63;;;4.63;;
46377;SDS011;32083;47.360;9.650;2023-11-21T09:42:32;8.90;;;5.75;;
46377;SDS011;32083;47.360;9.650;2023-11-21T09:47:54;6.97;;;4.97;;
46377;SDS011;32083;47.360;9.650;2023-11-21T09:50:23;6.55;;;5.15;;
46377;SDS011;32083;47.360;9.650;2023-11-21T09:55:43;8.43;;;5.63;;
46377;SDS011;32083;47.360;9.650;2023-11-21T09:58:11;8.85;;;5.78;;
46377;SDS011;32083;47.360;9.650;2023-11-21T10:00:39;6.82;;;4.95;;
46377;SDS011;32083;47.360;9.650;2023-11-21T10:03:10;5.82;;;4.82;;
46377;SDS011;32083;47.360;9.650;2023-11-21T10:05:37;5.97;;;4.18;;
46377;SDS011;32083;47.360;9.650;2023-11-21T10:08:04;6.43;;;3.75;;
46377;SDS011;32083;47.360;9.650;2023-11-21T10:10:35;6.63;;;4.00;;
46377;SDS011;32083;47.360;9.650;2023-11-21T10:13:03;6.35;;;3.88;;
46377;SDS011;32083;47.360;9.650;2023-11-21T10:15:36;7.20;;;4.43;;
46377;SDS011;32083;47.360;9.650;2023-11-21T10:18:02;5.22;;;3.85;;
46377;SDS011;32083;47.360;9.650;2023-11-21T10:20:30;5.78;;;3.53;;
46377;SDS011;32083;47.360;9.650;2023-11-21T10:22:59;5.15;;;3.45;;
46377;SDS011;32083;47.360;9.650;2023-11-21T10:25:27;5.20;;;3.15;;
46377;SDS011;32083;47.360;9.650;2023-11-21T10:27:57;5.53;;;3.80;;
46377;SDS011;32083;47.360;9.650;2023-11-21T10:30:36;7.90;;;2.97;;
46377;SDS011;32083;47.360;9.650;2023-11-21T10:33:07;4.82;;;2.80;;
46377;SDS011;32083;47.360;9.650;2023-11-21T10:38:12;5.50;;;3.17;;
46377;SDS011;32083;47.360;9.650;2023-11-21T10:40:40;7.18;;;3.03;;
46377;SDS011;32083;47.360;9.650;2023-11-21T10:43:07;4.65;;;2.35;;
46377;SDS011;32083;47.360;9.650;2023-11-21T10:45:34;4.20;;;2.30;;
46377;SDS011;32083;47.360;9.650;2023-11-21T10:48:04;4.07;;;2.28;;
46377;SDS011;32083;47.360;9.650;2023-11-21T10:50:48;5.05;;;2.58;;
46377;SDS011;32083;47.360;9.650;2023-11-21T10:53:15;4.80;;;2.63;;
46377;SDS011;32083;47.360;9.650;2023-11-21T10:55:41;6.25;;;4.00;;
46377;SDS011;32083;47.360;9.650;2023-11-21T10:58:09;4.07;;;2.85;;
46377;SDS011;32083;47.360;9.650;2023-11-21T11:00:38;3.80;;;2.97;;
46377;SDS011;32083;47.360;9.650;2023-11-21T11:03:06;4.10;;;2.90;;
46377;SDS011;32083;47.360;9.650;2023-11-21T11:05:38;5.15;;;3.05;;
46377;SDS011;32083;47.360;9.650;2023-11-21T11:08:12;4.18;;;2.60;;
46377;SDS011;32083;47.360;9.650;2023-11-21T11:10:45;1.80;;;1.38;;
46377;SDS011;32083;47.360;9.650;2023-11-21T11:13:12;1.88;;;1.10;;
46377;SDS011;32083;47.360;9.650;2023-11-21T11:15:40;1.48;;;0.85;;
46377;SDS011;32083;47.360;9.650;2023-11-21T11:18:09;2.38;;;0.82;;
46377;SDS011;32083;47.360;9.650;2023-11-21T11:20:37;1.95;;;1.10;;
46377;SDS011;32083;47.360;9.650;2023-11-21T11:23:26;2.13;;;1.08;;
46377;SDS011;32083;47.360;9.650;2023-11-21T11:30:03;2.03;;;0.70;;
46377;SDS011;32083;47.360;9.650;2023-11-21T11:32:21;4.18;;;1.75;;
46377;SDS011;32083;47.360;9.650;2023-11-21T11:35:07;4.22;;;2.72;;
46377;SDS011;32083;47.360;9.650;2023-11-21T11:37:42;2.88;;;1.90;;
46377;SDS011;32083;47.360;9.650;2023-11-21T11:40:10;2.03;;;1.60;;
46377;SDS011;32083;47.360;9.650;2023-11-21T11:42:37;5.55;;;1.50;;
46377;SDS011;32083;47.360;9.650;2023-11-21T11:45:17;3.30;;;2.10;;
46377;SDS011;32083;47.360;9.650;2023-11-21T11:47:46;2.60;;;1.23;;
46377;SDS011;32083;47.360;9.650;2023-11-21T11:50:13;2.17;;;1.10;;
46377;SDS011;32083;47.360;9.650;2023-11-21T11:52:42;4.10;;;1.17;;
46377;SDS011;32083;47.360;9.650;2023-11-21T11:55:16;0.80;;;0.60;;
46377;SDS011;32083;47.360;9.650;2023-11-21T11:57:46;1.85;;;0.82;;
46377;SDS011;32083;47.360;9.650;2023-11-21T12:00:33;2.80;;;0.98;;
46377;SDS011;32083;47.360;9.650;2023-11-21T12:03:03;0.80;;;0.68;;
46377;SDS011;32083;47.360;9.650;2023-11-21T12:05:33;1.58;;;1.05;;
46377;SDS011;32083;47.360;9.650;2023-11-21T12:08:03;2.08;;;0.90;;
46377;SDS011;32083;47.360;9.650;2023-11-21T12:10:32;1.75;;;0.82;;
46377;SDS011;32083;47.360;9.650;2023-11-21T12:13:01;1.42;;;0.80;;
46377;SDS011;32083;47.360;9.650;2023-11-21T12:15:28;2.05;;;1.33;;
46377;SDS011;32083;47.360;9.650;2023-11-21T12:17:56;1.27;;;0.82;;
46377;SDS011;32083;47.360;9.650;2023-11-21T12:20:23;2.20;;;1.00;;
46377;SDS011;32083;47.360;9.650;2023-11-21T12:22:51;6.10;;;1.05;;
46377;SDS011;32083;47.360;9.650;2023-11-21T12:25:22;1.83;;;0.93;;
46377;SDS011;32083;47.360;9.650;2023-11-21T12:27:52;2.47;;;0.85;;
46377;SDS011;32083;47.360;9.650;2023-11-21T12:30:19;1.10;;;0.90;;
46377;SDS011;32083;47.360;9.650;2023-11-21T12:32:53;1.83;;;0.90;;
46377;SDS011;32083;47.360;9.650;2023-11-21T12:35:24;1.33;;;0.82;;
46377;SDS011;32083;47.360;9.650;2023-11-21T12:37:59;3.47;;;0.93;;
46377;SDS011;32083;47.360;9.650;2023-11-21T12:40:25;1.85;;;0.65;;
46377;SDS011;32083;47.360;9.650;2023-11-21T12:42:53;1.20;;;0.70;;
46377;SDS011;32083;47.360;9.650;2023-11-21T12:45:26;1.60;;;0.82;;
46377;SDS011;32083;47.360;9.650;2023-11-21T12:50:25;1.45;;;0.60;;
46377;SDS011;32083;47.360;9.650;2023-11-21T12:53:00;0.50;;;0.50;;
46377;SDS011;32083;47.360;9.650;2023-11-21T12:55:30;3.00;;;0.60;;
46377;SDS011;32083;47.360;9.650;2023-11-21T12:57:57;1.05;;;0.50;;
46377;SDS011;32083;47.360;9.650;2023-11-21T13:00:32;0.90;;;0.50;;
46377;SDS011;32083;47.360;9.650;2023-11-21T13:03:02;0.82;;;0.60;;
46377;SDS011;32083;47.360;9.650;2023-11-21T13:05:33;2.17;;;1.48;;
46377;SDS011;32083;47.360;9.650;2023-11-21T13:08:03;1.80;;;0.93;;
46377;SDS011;32083;47.360;9.650;2023-11-21T13:10:37;1.23;;;0.60;;
46377;SDS011;32083;47.360;9.650;2023-11-21T13:13:07;0.77;;;0.60;;
46377;SDS011;32083;47.360;9.650;2023-11-21T13:15:41;1.75;;;0.50;;
46377;SDS011;32083;47.360;9.650;2023-11-21T13:18:14;0.57;;;0.57;;
46377;SDS011;32083;47.360;9.650;2023-11-21T13:20:41;0.65;;;0.60;;
46377;SDS011;32083;47.360;9.650;2023-11-21T13:23:11;1.35;;;0.85;;
46377;SDS011;32083;47.360;9.650;2023-11-21T13:25:40;2.78;;;1.25;;
46377;SDS011;32083;47.360;9.650;2023-11-21T13:28:07;2.88;;;1.27;;
46377;SDS011;32083;47.360;9.650;2023-11-21T13:30:35;1.33;;;0.90;;
46377;SDS011;32083;47.360;9.650;2023-11-21T13:33:01;3.47;;;3.05;;
46377;SDS011;32083;47.360;9.650;2023-11-21T13:35:31;2.90;;;2.70;;
46377;SDS011;32083;47.360;9.650;2023-11-21T13:38:06;6.97;;;6.50;;
46377;SDS011;32083;47.360;9.650;2023-11-21T13:40:33;7.28;;;6.70;;
46377;SDS011;32083;47.360;9.650;2023-11-21T13:43:07;1.48;;;0.90;;
46377;SDS011;32083;47.360;9.650;2023-11-21T13:45:38;1.58;;;1.48;;
46377;SDS011;32083;47.360;9.650;2023-11-21T13:48:05;1.40;;;1.08;;
46377;SDS011;32083;47.360;9.650;2023-11-21T13:50:45;2.28;;;1.08;;
46377;SDS011;32083;47.360;9.650;2023-11-21T13:53:23;2.88;;;1.27;;
46377;SDS011;32083;47.360;9.650;2023-11-21T13:55:53;1.45;;;1.13;;
46377;SDS011;32083;47.360;9.650;2023-11-21T13:58:22;2.33;;;1.35;;
46377;SDS011;32083;47.360;9.650;2023-11-21T14:01:07;2.42;;;0.90;;
46377;SDS011;32083;47.360;9.650;2023-11-21T14:03:52;2.22;;;0.90;;
46377;SDS011;32083;47.360;9.650;2023-11-21T14:06:23;1.38;;;0.82;;
46377;SDS011;32083;47.360;9.650;2023-11-21T14:08:57;2.85;;;1.10;;
46377;SDS011;32083;47.360;9.650;2023-11-21T14:11:24;1.98;;;1.20;;
46377;SDS011;32083;47.360;9.650;2023-11-21T14:13:50;2.00;;;1.50;;
46377;SDS011;32083;47.360;9.650;2023-11-21T14:16:16;2.28;;;1.85;;
46377;SDS011;32083;47.360;9.650;2023-11-21T14:18:43;1.55;;;0.88;;
46377;SDS011;32083;47.360;9.650;2023-11-21T14:21:26;2.05;;;1.00;;
46377;SDS011;32083;47.360;9.650;2023-11-21T14:23:52;1.13;;;0.80;;
46377;SDS011;32083;47.360;9.650;2023-11-21T14:26:21;1.50;;;1.10;;
46377;SDS011;32083;47.360;9.650;2023-11-21T14:28:49;2.03;;;1.23;;
46377;SDS011;32083;47.360;9.650;2023-11-21T14:31:16;1.42;;;0.88;;
46377;SDS011;32083;47.360;9.650;2023-11-21T14:33:45;1.02;;;0.80;;
46377;SDS011;32083;47.360;9.650;2023-11-21T14:36:11;0.88;;;0.55;;
46377;SDS011;32083;47.360;9.650;2023-11-21T14:38:37;1.45;;;0.65;;
46377;SDS011;32083;47.360;9.650;2023-11-21T14:41:05;1.75;;;0.80;;
46377;SDS011;32083;47.360;9.650;2023-11-21T14:43:36;0.98;;;0.68;;
46377;SDS011;32083;47.360;9.650;2023-11-21T14:46:04;0.25;;;0.25;;
46377;SDS011;32083;47.360;9.650;2023-11-21T14:48:35;0.93;;;0.50;;
46377;SDS011;32083;47.360;9.650;2023-11-21T14:51:08;1.23;;;0.40;;
46377;SDS011;32083;47.360;9.650;2023-11-21T14:53:40;0.77;;;0.50;;
46377;SDS011;32083;47.360;9.650;2023-11-21T14:56:22;2.38;;;0.88;;
46377;SDS011;32083;47.360;9.650;2023-11-21T14:58:54;2.13;;;1.00;;
46377;SDS011;32083;47.360;9.650;2023-11-21T15:01:21;1.40;;;1.08;;
46377;SDS011;32083;47.360;9.650;2023-11-21T15:04:11;2.92;;;1.63;;
46377;SDS011;32083;47.360;9.650;2023-11-21T15:06:49;2.70;;;1.65;;
46377;SDS011;32083;47.360;9.650;2023-11-21T15:09:17;4.82;;;2.58;;
46377;SDS011;32083;47.360;9.650;2023-11-21T15:11:43;4.32;;;2.83;;
46377;SDS011;32083;47.360;9.650;2023-11-21T15:14:09;4.50;;;2.08;;
46377;SDS011;32083;47.360;9.650;2023-11-21T15:16:38;2.25;;;1.60;;
46377;SDS011;32083;47.360;9.650;2023-11-21T15:19:08;3.85;;;1.80;;
46377;SDS011;32083;47.360;9.650;2023-11-21T15:21:35;3.03;;;1.60;;
46377;SDS011;32083;47.360;9.650;2023-11-21T15:24:01;2.70;;;2.10;;
46377;SDS011;32083;47.360;9.650;2023-11-21T15:26:28;3.13;;;2.40;;
46377;SDS011;32083;47.360;9.650;2023-11-21T15:28:54;2.17;;;1.55;;
46377;SDS011;32083;47.360;9.650;2023-11-21T15:31:21;1.77;;;1.20;;
46377;SDS011;32083;47.360;9.650;2023-11-21T15:33:50;2.10;;;0.85;;
46377;SDS011;32083;47.360;9.650;2023-11-21T15:36:18;2.70;;;1.42;;
46377;SDS011;32083;47.360;9.650;2023-11-21T15:38:44;3.63;;;1.27;;
46377;SDS011;32083;47.360;9.650;2023-11-21T15:41:10;6.00;;;2.45;;
46377;SDS011;32083;47.360;9.650;2023-11-21T15:43:37;6.03;;;2.78;;
46377;SDS011;32083;47.360;9.650;2023-11-21T15:46:03;2.97;;;2.00;;
46377;SDS011;32083;47.360;9.650;2023-11-21T15:48:36;2.80;;;2.35;;
46377;SDS011;32083;47.360;9.650;2023-11-21T15:51:06;3.75;;;2.17;;
46377;SDS011;32083;47.360;9.650;2023-11-21T15:53:35;3.33;;;1.75;;
46377;SDS011;32083;47.360;9.650;2023-11-21T15:56:03;2.67;;;1.98;;
46377;SDS011;32083;47.360;9.650;2023-11-21T15:58:29;4.55;;;2.10;;
46377;SDS011;32083;47.360;9.650;2023-11-21T16:00:55;2.45;;;1.20;;
46377;SDS011;32083;47.360;9.650;2023-11-21T16:03:22;2.35;;;1.30;;
46377;SDS011;32083;47.360;9.650;2023-11-21T16:05:48;1.98;;;1.15;;
46377;SDS011;32083;47.360;9.650;2023-11-21T16:08:15;2.42;;;1.77;;
46377;SDS011;32083;47.360;9.650;2023-11-21T16:10:43;3.42;;;2.20;;
46377;SDS011;32083;47.360;9.650;2023-11-21T16:13:09;2.55;;;1.70;;
46377;SDS011;32083;47.360;9.650;2023-11-21T16:15:35;5.15;;;4.40;;
46377;SDS011;32083;47.360;9.650;2023-11-21T16:18:01;6.00;;;4.30;;
46377;SDS011;32083;47.360;9.650;2023-11-21T16:20:27;6.70;;;5.40;;
46377;SDS011;32083;47.360;9.650;2023-11-21T16:22:53;5.43;;;4.93;;
46377;SDS011;32083;47.360;9.650;2023-11-21T16:25:19;5.55;;;4.93;;
46377;SDS011;32083;47.360;9.650;2023-11-21T16:27:45;8.05;;;6.07;;
46377;SDS011;32083;47.360;9.650;2023-11-21T16:30:12;7.90;;;7.03;;
46377;SDS011;32083;47.360;9.650;2023-11-21T16:32:38;5.85;;;5.35;;
46377;SDS011;32083;47.360;9.650;2023-11-21T16:35:05;8.25;;;5.72;;
46377;SDS011;32083;47.360;9.650;2023-11-21T16:37:31;7.32;;;6.50;;
46377;SDS011;32083;47.360;9.650;2023-11-21T16:39:58;7.63;;;6.07;;
46377;SDS011;32083;47.360;9.650;2023-11-21T16:42:24;9.07;;;7.63;;
46377;SDS011;32083;47.360;9.650;2023-11-21T16:44:52;13.02;;;11.52;;
46377;SDS011;32083;47.360;9.650;2023-11-21T16:47:19;11.45;;;10.25;;
46377;SDS011;32083;47.360;9.650;2023-11-21T16:49:46;10.73;;;7.80;;
46377;SDS011;32083;47.360;9.650;2023-11-21T16:52:12;8.15;;;6.40;;
46377;SDS011;32083;47.360;9.650;2023-11-21T16:54:38;6.97;;;5.68;;
46377;SDS011;32083;47.360;9.650;2023-11-21T16:57:04;4.82;;;4.40;;
46377;SDS011;32083;47.360;9.650;2023-11-21T16:59:30;5.90;;;5.03;;
46377;SDS011;32083;47.360;9.650;2023-11-21T17:06:56;4.80;;;4.30;;
46377;SDS011;32083;47.360;9.650;2023-11-21T17:12:21;4.97;;;4.32;;
46377;SDS011;32083;47.360;9.650;2023-11-21T17:15:09;4.85;;;4.10;;
46377;SDS011;32083;47.360;9.650;2023-11-21T17:18:35;6.22;;;4.82;;
46377;SDS011;32083;47.360;9.650;2023-11-21T17:21:01;8.02;;;4.93;;
46377;SDS011;32083;47.360;9.650;2023-11-21T17:24:10;5.63;;;4.95;;
46377;SDS011;32083;47.360;9.650;2023-11-21T17:27:16;5.97;;;5.18;;
46377;SDS011;32083;47.360;9.650;2023-11-21T17:30:56;9.65;;;8.40;;
46377;SDS011;32083;47.360;9.650;2023-11-21T17:37:29;13.73;;;10.55;;
46377;SDS011;32083;47.360;9.650;2023-11-21T17:40:18;16.15;;;11.10;;
46377;SDS011;32083;47.360;9.650;2023-11-21T17:42:55;15.45;;;11.32;;
46377;SDS011;32083;47.360;9.650;2023-11-21T18:05:23;26.58;;;23.60;;
46377;SDS011;32083;47.360;9.650;2023-11-21T18:07:58;23.17;;;19.30;;
46377;SDS011;32083;47.360;9.650;2023-11-21T18:10:49;17.95;;;15.98;;
46377;SDS011;32083;47.360;9.650;2023-11-21T18:13:23;21.98;;;17.60;;
46377;SDS011;32083;47.360;9.650;2023-11-21T18:16:46;18.25;;;14.98;;
46377;SDS011;32083;47.360;9.650;2023-11-21T18:19:15;12.60;;;11.30;;
46377;SDS011;32083;47.360;9.650;2023-11-21T18:44:55;8.25;;;5.97;;
46377;SDS011;32083;47.360;9.650;2023-11-21T18:47:28;8.02;;;6.50;;
46377;SDS011;32083;47.360;9.650;2023-11-21T18:50:59;9.25;;;6.90;;
46377;SDS011;32083;47.360;9.650;2023-11-21T18:53:34;8.63;;;7.45;;
46377;SDS011;32083;47.360;9.650;2023-11-21T19:02:57;11.40;;;10.18;;
46377;SDS011;32083;47.360;9.650;2023-11-21T19:11:46;15.52;;;10.65;;
46377;SDS011;32083;47.360;9.650;2023-11-21T19:14:42;15.07;;;12.07;;
46377;SDS011;32083;47.360;9.650;2023-11-21T19:40:00;9.38;;;8.43;;
46377;SDS011;32083;47.360;9.650;2023-11-21T19:43:31;10.23;;;8.50;;
46377;SDS011;32083;47.360;9.650;2023-11-21T19:49:53;10.90;;;9.30;;
46377;SDS011;32083;47.360;9.650;2023-11-21T19:52:57;12.65;;;10.48;;
46377;SDS011;32083;47.360;9.650;2023-11-21T20:02:27;17.10;;;12.93;;
46377;SDS011;32083;47.360;9.650;2023-11-21T20:10:27;28.00;;;22.40;;
46377;SDS011;32083;47.360;9.650;2023-11-21T21:20:04;37.55;;;29.27;;
46377;SDS011;32083;47.360;9.650;2023-11-21T21:22:35;32.92;;;26.45;;
46377;SDS011;32083;47.360;9.650;2023-11-21T21:25:04;19.50;;;15.82;;
46377;SDS011;32083;47.360;9.650;2023-11-21T21:27:31;16.55;;;14.32;;
46377;SDS011;32083;47.360;9.650;2023-11-21T21:29:57;17.75;;;15.65;;
46377;SDS011;32083;47.360;9.650;2023-11-21T21:32:23;22.30;;;17.80;;
46377;SDS011;32083;47.360;9.650;2023-11-21T21:34:50;28.77;;;21.08;;
46377;SDS011;32083;47.360;9.650;2023-11-21T21:37:17;28.27;;;22.73;;
46377;SDS011;32083;47.360;9.650;2023-11-21T21:39:43;27.35;;;21.50;;
46377;SDS011;32083;47.360;9.650;2023-11-21T21:42:13;26.52;;;19.50;;
46377;SDS011;32083;47.360;9.650;2023-11-21T21:44:39;14.10;;;12.60;;
46377;SDS011;32083;47.360;9.650;2023-11-21T21:47:05;10.98;;;8.98;;
46377;SDS011;32083;47.360;9.650;2023-11-21T21:49:31;9.48;;;8.48;;
46377;SDS011;32083;47.360;9.650;2023-11-21T21:52:01;8.95;;;8.13;;
46377;SDS011;32083;47.360;9.650;2023-11-21T21:54:27;9.45;;;8.45;;
46377;SDS011;32083;47.360;9.650;2023-11-21T21:56:56;9.45;;;8.40;;
46377;SDS011;32083;47.360;9.650;2023-11-21T21:59:22;11.43;;;9.73;;
46377;SDS011;32083;47.360;9.650;2023-11-21T22:01:53;9.38;;;8.45;;
46377;SDS011;32083;47.360;9.650;2023-11-21T22:04:24;8.65;;;7.63;;
46377;SDS011;32083;47.360;9.650;2023-11-21T22:06:50;7.97;;;7.18;;
46377;SDS011;32083;47.360;9.650;2023-11-21T22:09:16;11.77;;;8.93;;
46377;SDS011;32083;47.360;9.650;2023-11-21T22:11:44;11.02;;;9.90;;
46377;SDS011;32083;47.360;9.650;2023-11-21T22:14:10;9.70;;;8.80;;
46377;SDS011;32083;47.360;9.650;2023-11-21T22:16:36;9.13;;;8.07;;
46377;SDS011;32083;47.360;9.650;2023-11-21T22:19:02;9.50;;;8.60;;
46377;SDS011;32083;47.360;9.650;2023-11-21T22:21:28;9.75;;;8.75;;
46377;SDS011;32083;47.360;9.650;2023-11-21T22:23:54;10.50;;;9.35;;
46377;SDS011;32083;47.360;9.650;2023-11-21T22:26:20;9.93;;;8.50;;
46377;SDS011;32083;47.360;9.650;2023-11-21T22:28:46;8.35;;;7.45;;
46377;SDS011;32083;47.360;9.650;2023-11-21T22:31:11;10.05;;;9.05;;
46377;SDS011;32083;47.360;9.650;2023-11-21T22:33:37;10.63;;;9.32;;
46377;SDS011;32083;47.360;9.650;2023-11-21T22:36:03;11.80;;;10.60;;
46377;SDS011;32083;47.360;9.650;2023-11-21T22:38:30;10.75;;;9.75;;
46377;SDS011;32083;47.360;9.650;2023-11-21T22:40:56;12.00;;;10.65;;
46377;SDS011;32083;47.360;9.650;2023-11-21T22:43:22;10.77;;;9.63;;
46377;SDS011;32083;47.360;9.650;2023-11-21T22:45:48;10.70;;;9.60;;
46377;SDS011;32083;47.360;9.650;2023-11-21T22:48:14;15.13;;;11.65;;
46377;SDS011;32083;47.360;9.650;2023-11-21T22:50:40;10.77;;;9.77;;
46377;SDS011;32083;47.360;9.650;2023-11-21T22:53:09;11.32;;;10.13;;
46377;SDS011;32083;47.360;9.650;2023-11-21T22:55:35;10.13;;;8.98;;
46377;SDS011;32083;47.360;9.650;2023-11-21T22:58:01;9.55;;;8.50;;
46377;SDS011;32083;47.360;9.650;2023-11-21T23:00:30;9.20;;;8.30;;
46377;SDS011;32083;47.360;9.650;2023-11-21T23:02:58;9.68;;;8.68;;
46377;SDS011;32083;47.360;9.650;2023-11-21T23:05:25;9.13;;;8.20;;
46377;SDS011;32083;47.360;9.650;2023-11-21T23:07:51;10.13;;;9.13;;
46377;SDS011;32083;47.360;9.650;2023-11-21T23:10:17;8.88;;;8.07;;
46377;SDS011;32083;47.360;9.650;2023-11-21T23:12:43;10.50;;;8.43;;
46377;SDS011;32083;47.360;9.650;2023-11-21T23:15:09;11.45;;;8.50;;
46377;SDS011;32083;47.360;9.650;2023-11-21T23:17:35;10.85;;;8.63;;
46377;SDS011;32083;47.360;9.650;2023-11-21T23:20:01;8.98;;;8.00;;
46377;SDS011;32083;47.360;9.650;2023-11-21T23:22:34;12.30;;;9.95;;
46377;SDS011;32083;47.360;9.650;2023-11-21T23:25:02;10.80;;;9.00;;
46377;SDS011;32083;47.360;9.650;2023-11-21T23:27:28;10.07;;;9.07;;
46377;SDS011;32083;47.360;9.650;2023-11-21T23:29:54;9.25;;;7.60;;
46377;SDS011;32083;47.360;9.650;2023-11-21T23:32:20;9.95;;;8.93;;
46377;SDS011;32083;47.360;9.650;2023-11-21T23:34:49;11.35;;;10.18;;
46377;SDS011;32083;47.360;9.650;2023-11-21T23:37:15;9.98;;;8.98;;
46377;SDS011;32083;47.360;9.650;2023-11-21T23:39:41;10.70;;;9.43;;
46377;SDS011;32083;47.360;9.650;2023-11-21T23:42:08;11.25;;;10.13;;
46377;SDS011;32083;47.360;9.650;2023-11-21T23:44:34;12.30;;;9.45;;
46377;SDS011;32083;47.360;9.650;2023-11-21T23:47:00;10.23;;;9.25;;
46377;SDS011;32083;47.360;9.650;2023-11-21T23:49:26;11.10;;;9.27;;
46377;SDS011;32083;47.360;9.650;2023-11-21T23:51:53;9.80;;;8.80;;
46377;SDS011;32083;47.360;9.650;2023-11-21T23:54:19;10.73;;;8.43;;